PWSweather.com
Personal Weather Stations
Station Observations
MENWDWX1
Menstrie, ScotlandGB

MenstrieScotlandGB

Lat: 56.148322, Lon: -3.85483

Elevation: 62

Station Type: Davis Vantage Pro 2

Latest ConditionsUpdated 4:50:01 AM GMT Wednesday, Apr 24, 2019
Currently Today's Max Today's Min Today's Average
Temperature 45.8°F7.7°C 49.0°F9.4°C 44.2°F6.8°C 45.6°F7.6°C
Dew Point 39.3°F4.1°C 41.4°F5.2°C 37.8°F3.2°C 39.1°F3.9°C
Winds 2.3 mph W3.7 kmh W 6.9 mph -11.1 kmh - - 3.1 mph 5.0 kmh
Wind Gusts 3.5 mph5.6 kmh 11.5 mph18.5 kmh - -
Humidity 78% 79% 75% 78%
Pressure 29.45 in997.3 mb 29.50 in999.0 mb 29.45 in997.3 mb -
Hour Temp Dew Point Humidity Winds Wind Gusts Pressure Precip Precip Rate Daily Precip Total
04:50 AM 45.8°F7.7°C 39.3°F4.1°C 78% 2.3 mph W3.7 kmh W 3.5 mph5.6 kmh 29.45 in997.3 mb - 0.00 in0.0 mm 0.00 in0.0 mm
04:45 AM 45.3°F7.4°C 38.8°F3.8°C 78% 2.3 mph N3.7 kmh N 3.5 mph5.6 kmh 29.45 in997.3 mb - 0.00 in0.0 mm 0.00 in0.0 mm
04:40 AM 45.1°F7.3°C 38.6°F3.7°C 78% 3.5 mph SW5.6 kmh SW 8.1 mph13.0 kmh 29.45 in997.3 mb - 0.00 in0.0 mm 0.00 in0.0 mm
04:35 AM 45.2°F7.3°C 38.7°F3.7°C 78% 1.2 mph NE1.9 kmh NE 2.3 mph3.7 kmh 29.45 in997.3 mb - 0.00 in0.0 mm 0.00 in0.0 mm
04:30 AM 44.9°F7.2°C 38.5°F3.6°C 78% 2.3 mph NW3.7 kmh NW 2.3 mph3.7 kmh 29.45 in997.3 mb - 0.00 in0.0 mm 0.00 in0.0 mm
04:25 AM 44.9°F7.2°C 38.5°F3.6°C 78% 3.5 mph WSW5.6 kmh WSW 3.5 mph5.6 kmh 29.46 in997.6 mb - 0.00 in0.0 mm 0.00 in0.0 mm
04:20 AM 44.9°F7.2°C 38.5°F3.6°C 78% 3.5 mph WSW5.6 kmh WSW 3.5 mph5.6 kmh 29.46 in997.6 mb - 0.00 in0.0 mm 0.00 in0.0 mm
04:15 AM 44.9°F7.2°C 38.5°F3.6°C 78% 2.3 mph W3.7 kmh W 6.9 mph11.1 kmh 29.46 in997.6 mb - 0.00 in0.0 mm 0.00 in0.0 mm
04:10 AM 44.7°F7.1°C 38.3°F3.5°C 78% 4.6 mph W7.4 kmh W 6.9 mph11.1 kmh 29.46 in997.6 mb - 0.00 in0.0 mm 0.00 in0.0 mm
04:05 AM 44.5°F6.9°C 38.1°F3.4°C 78% 2.3 mph WSW3.7 kmh WSW 3.5 mph5.6 kmh 29.46 in997.6 mb - 0.00 in0.0 mm 0.00 in0.0 mm
04:00 AM 44.2°F6.8°C 37.8°F3.2°C 78% 2.3 mph WSW3.7 kmh WSW 3.5 mph5.6 kmh 29.46 in997.6 mb - 0.00 in0.0 mm 0.00 in0.0 mm
03:55 AM 44.2°F6.8°C 37.8°F3.2°C 78% Calm Calm 1.2 mph1.9 kmh 29.46 in997.6 mb - 0.00 in0.0 mm 0.00 in0.0 mm
03:50 AM 44.4°F6.9°C 38.0°F3.3°C 78% 3.5 mph SW5.6 kmh SW 3.5 mph5.6 kmh 29.46 in997.6 mb - 0.00 in0.0 mm 0.00 in0.0 mm
03:45 AM 44.4°F6.9°C 38.0°F3.3°C 78% 2.3 mph W3.7 kmh W 3.5 mph5.6 kmh 29.46 in997.6 mb - 0.00 in0.0 mm 0.00 in0.0 mm
03:40 AM 44.5°F6.9°C 38.1°F3.4°C 78% 1.2 mph W1.9 kmh W 3.5 mph5.6 kmh 29.46 in997.6 mb - 0.00 in0.0 mm 0.00 in0.0 mm
03:35 AM 44.7°F7.1°C 38.3°F3.5°C 78% 2.3 mph W3.7 kmh W 5.8 mph9.3 kmh 29.46 in997.6 mb - 0.00 in0.0 mm 0.00 in0.0 mm
03:30 AM 44.8°F7.1°C 38.7°F3.7°C 79% Calm Calm 3.5 mph5.6 kmh 29.46 in997.6 mb - 0.00 in0.0 mm 0.00 in0.0 mm
03:25 AM 44.9°F7.2°C 38.8°F3.8°C 79% 2.3 mph W3.7 kmh W 3.5 mph5.6 kmh 29.47 in998.0 mb - 0.00 in0.0 mm 0.00 in0.0 mm
03:20 AM 45.2°F7.3°C 38.7°F3.7°C 78% 3.5 mph WSW5.6 kmh WSW 3.5 mph5.6 kmh 29.47 in998.0 mb - 0.00 in0.0 mm 0.00 in0.0 mm
03:15 AM 45.4°F7.4°C 39.0°F3.9°C 78% 4.6 mph WSW7.4 kmh WSW 9.2 mph14.8 kmh 29.47 in998.0 mb - 0.00 in0.0 mm 0.00 in0.0 mm
03:10 AM 45.7°F7.6°C 39.2°F4.0°C 78% 1.2 mph WNW1.9 kmh WNW 3.5 mph5.6 kmh 29.47 in998.0 mb - 0.00 in0.0 mm 0.00 in0.0 mm
03:05 AM 45.9°F7.7°C 39.4°F4.1°C 78% 1.2 mph NW1.9 kmh NW 1.2 mph1.9 kmh 29.47 in998.0 mb - 0.00 in0.0 mm 0.00 in0.0 mm
03:00 AM 46.1°F7.8°C 39.6°F4.2°C 78% 2.3 mph NW3.7 kmh NW 3.5 mph5.6 kmh 29.47 in998.0 mb - 0.00 in0.0 mm 0.00 in0.0 mm
02:55 AM 46.1°F7.8°C 39.6°F4.2°C 78% 2.3 mph NNW3.7 kmh NNW 4.6 mph7.4 kmh 29.48 in998.3 mb - 0.00 in0.0 mm 0.00 in0.0 mm
02:50 AM 45.9°F7.7°C 39.4°F4.1°C 78% 2.3 mph E3.7 kmh E 4.6 mph7.4 kmh 29.48 in998.3 mb - 0.00 in0.0 mm 0.00 in0.0 mm
02:45 AM 45.7°F7.6°C 39.2°F4.0°C 78% 3.5 mph ESE5.6 kmh ESE 5.8 mph9.3 kmh 29.48 in998.3 mb - 0.00 in0.0 mm 0.00 in0.0 mm
02:40 AM 45.6°F7.6°C 39.1°F3.9°C 78% 3.5 mph WSW5.6 kmh WSW 6.9 mph11.1 kmh 29.48 in998.3 mb - 0.00 in0.0 mm 0.00 in0.0 mm
02:35 AM 45.5°F7.5°C 39.0°F3.9°C 78% 3.5 mph W5.6 kmh W 6.9 mph11.1 kmh 29.48 in998.3 mb - 0.00 in0.0 mm 0.00 in0.0 mm
02:30 AM 45.3°F7.4°C 38.8°F3.8°C 78% 3.5 mph WSW5.6 kmh WSW 3.5 mph5.6 kmh 29.48 in998.3 mb - 0.00 in0.0 mm 0.00 in0.0 mm
02:25 AM 44.5°F6.9°C 38.1°F3.4°C 78% 3.5 mph SW5.6 kmh SW 4.6 mph7.4 kmh 29.48 in998.3 mb - 0.00 in0.0 mm 0.00 in0.0 mm
02:20 AM 44.5°F6.9°C 38.1°F3.4°C 78% 2.3 mph W3.7 kmh W 3.5 mph5.6 kmh 29.48 in998.3 mb - 0.00 in0.0 mm 0.00 in0.0 mm
02:15 AM 44.5°F6.9°C 38.1°F3.4°C 78% 1.2 mph W1.9 kmh W 3.5 mph5.6 kmh 29.48 in998.3 mb - 0.00 in0.0 mm 0.00 in0.0 mm
02:10 AM 44.6°F7.0°C 38.2°F3.4°C 78% 2.3 mph W3.7 kmh W 3.5 mph5.6 kmh 29.48 in998.3 mb - 0.00 in0.0 mm 0.00 in0.0 mm
02:05 AM 44.7°F7.1°C 38.3°F3.5°C 78% Calm Calm 2.3 mph3.7 kmh 29.49 in998.6 mb - 0.00 in0.0 mm 0.00 in0.0 mm
02:00 AM 44.8°F7.1°C 38.4°F3.6°C 78% 1.2 mph W1.9 kmh W 3.5 mph5.6 kmh 29.49 in998.6 mb - 0.00 in0.0 mm 0.00 in0.0 mm
01:55 AM 44.7°F7.1°C 38.3°F3.5°C 78% 1.2 mph W1.9 kmh W 2.3 mph3.7 kmh 29.49 in998.6 mb - 0.00 in0.0 mm 0.00 in0.0 mm
01:50 AM 44.8°F7.1°C 38.4°F3.6°C 78% Calm Calm -- 29.49 in998.6 mb - 0.00 in0.0 mm 0.00 in0.0 mm
01:45 AM 44.9°F7.2°C 38.5°F3.6°C 78% 2.3 mph W3.7 kmh W 3.5 mph5.6 kmh 29.50 in999.0 mb - 0.00 in0.0 mm 0.00 in0.0 mm
01:40 AM 45.0°F7.2°C 38.6°F3.7°C 78% 2.3 mph WSW3.7 kmh WSW 5.8 mph9.3 kmh 29.50 in999.0 mb - 0.00 in0.0 mm 0.00 in0.0 mm
01:35 AM 45.1°F7.3°C 38.6°F3.7°C 78% 2.3 mph W3.7 kmh W 3.5 mph5.6 kmh 29.50 in999.0 mb - 0.00 in0.0 mm 0.00 in0.0 mm
01:30 AM 45.3°F7.4°C 38.8°F3.8°C 78% 3.5 mph W5.6 kmh W 3.5 mph5.6 kmh 29.50 in999.0 mb - 0.00 in0.0 mm 0.00 in0.0 mm
01:25 AM 45.6°F7.6°C 39.1°F3.9°C 78% 4.6 mph W7.4 kmh W 6.9 mph11.1 kmh 29.50 in999.0 mb - 0.00 in0.0 mm 0.00 in0.0 mm
01:20 AM 45.7°F7.6°C 39.2°F4.0°C 78% 4.6 mph W7.4 kmh W 9.2 mph14.8 kmh 29.50 in999.0 mb - 0.00 in0.0 mm 0.00 in0.0 mm
01:15 AM 45.8°F7.7°C 39.3°F4.1°C 78% 5.8 mph WSW9.3 kmh WSW 9.2 mph14.8 kmh 29.50 in999.0 mb - 0.00 in0.0 mm 0.00 in0.0 mm
01:10 AM 45.8°F7.7°C 39.3°F4.1°C 78% 4.6 mph WSW7.4 kmh WSW 8.1 mph13.0 kmh 29.50 in999.0 mb - 0.00 in0.0 mm 0.00 in0.0 mm
01:05 AM 46.1°F7.8°C 39.6°F4.2°C 78% 5.8 mph WSW9.3 kmh WSW 6.9 mph11.1 kmh 29.50 in999.0 mb - 0.00 in0.0 mm 0.00 in0.0 mm
01:00 AM 46.4°F8.0°C 39.9°F4.4°C 78% 5.8 mph WSW9.3 kmh WSW 9.2 mph14.8 kmh 29.50 in999.0 mb - 0.00 in0.0 mm 0.00 in0.0 mm
12:55 AM 46.6°F8.1°C 40.1°F4.5°C 78% 5.8 mph WSW9.3 kmh WSW 9.2 mph14.8 kmh 29.50 in999.0 mb - 0.00 in0.0 mm 0.00 in0.0 mm
12:50 AM 46.8°F8.2°C 40.3°F4.6°C 78% 4.6 mph WSW7.4 kmh WSW 8.1 mph13.0 kmh 29.50 in999.0 mb - 0.00 in0.0 mm 0.00 in0.0 mm
12:45 AM 46.9°F8.3°C 40.4°F4.7°C 78% 5.8 mph SW9.3 kmh SW 6.9 mph11.1 kmh 29.50 in999.0 mb - 0.00 in0.0 mm 0.00 in0.0 mm
12:40 AM 47.2°F8.4°C 40.7°F4.8°C 78% 6.9 mph WSW11.1 kmh WSW 11.5 mph18.5 kmh 29.50 in999.0 mb - 0.00 in0.0 mm 0.00 in0.0 mm
12:35 AM 47.6°F8.7°C 40.7°F4.8°C 77% 4.6 mph SSW7.4 kmh SSW 4.6 mph7.4 kmh 29.50 in999.0 mb - 0.00 in0.0 mm 0.00 in0.0 mm
12:30 AM 47.6°F8.7°C 41.1°F5.1°C 78% 3.5 mph S5.6 kmh S 6.9 mph11.1 kmh 29.50 in999.0 mb - 0.00 in0.0 mm 0.00 in0.0 mm
12:25 AM 47.3°F8.5°C 40.8°F4.9°C 78% 5.8 mph S9.3 kmh S 8.1 mph13.0 kmh 29.50 in999.0 mb - 0.00 in0.0 mm 0.00 in0.0 mm
12:20 AM 47.5°F8.6°C 40.7°F4.8°C 77% 4.6 mph SW7.4 kmh SW 5.8 mph9.3 kmh 29.50 in999.0 mb - 0.00 in0.0 mm 0.00 in0.0 mm
12:15 AM 48.0°F8.9°C 41.1°F5.1°C 77% 4.6 mph SW7.4 kmh SW 8.1 mph13.0 kmh 29.50 in999.0 mb - 0.00 in0.0 mm 0.00 in0.0 mm
12:10 AM 48.3°F9.1°C 41.1°F5.1°C 76% 4.6 mph SW7.4 kmh SW 9.2 mph14.8 kmh 29.50 in999.0 mb - 0.00 in0.0 mm 0.00 in0.0 mm
12:05 AM 48.5°F9.2°C 41.3°F5.2°C 76% 3.5 mph WSW5.6 kmh WSW 3.5 mph5.6 kmh 29.50 in999.0 mb - 0.00 in0.0 mm 0.00 in0.0 mm
12:00 AM 49.0°F9.4°C 41.4°F5.2°C 75% Calm Calm 1.2 mph1.9 kmh 29.50 in999.0 mb - 0.00 in0.0 mm 0.00 in0.0 mm